createdAt,value
2023-04-17T00:02:04.651Z,35.10
2023-04-17T00:04:33.020Z,35.25
2023-04-17T00:07:03.574Z,34.28
2023-04-17T00:09:31.487Z,35.28
2023-04-17T00:11:59.423Z,34.55
2023-04-17T00:14:27.629Z,36.30
2023-04-17T00:16:55.398Z,35.60
2023-04-17T00:19:23.330Z,37.05
2023-04-17T00:21:51.148Z,36.72
2023-04-17T00:24:20.277Z,38.60
2023-04-17T00:26:48.017Z,37.92
2023-04-17T00:29:15.801Z,37.28
2023-04-17T00:31:43.579Z,36.38
2023-04-17T00:34:11.557Z,36.70
2023-04-17T00:36:39.335Z,38.45
2023-04-17T00:39:07.069Z,35.40
2023-04-17T00:41:36.464Z,38.08
2023-04-17T00:44:04.208Z,38.47
2023-04-17T00:46:32.383Z,35.65
2023-04-17T00:49:01.048Z,37.38
2023-04-17T00:51:29.133Z,37.58
2023-04-17T00:53:57.217Z,38.35
2023-04-17T00:56:26.143Z,38.40
2023-04-17T00:58:56.744Z,37.85
2023-04-17T01:01:24.501Z,38.45
2023-04-17T01:03:52.323Z,38.65
2023-04-17T01:06:20.657Z,37.10
2023-04-17T01:08:48.453Z,36.55
2023-04-17T01:11:16.128Z,40.20
2023-04-17T01:13:47.301Z,40.45
2023-04-17T01:16:16.827Z,38.05
2023-04-17T01:18:44.941Z,38.95
2023-04-17T01:21:12.999Z,40.83
2023-04-17T01:23:46.333Z,40.15
2023-04-17T01:26:18.704Z,41.58
2023-04-17T01:28:51.703Z,43.63
2023-04-17T01:31:19.485Z,42.70
2023-04-17T01:33:47.463Z,42.65
2023-04-17T01:36:15.341Z,43.13
2023-04-17T01:38:43.410Z,40.22
2023-04-17T01:41:11.192Z,40.13
2023-04-17T01:43:42.286Z,41.05
2023-04-17T01:46:10.131Z,39.58
2023-04-17T01:48:38.316Z,43.03
2023-04-17T01:51:07.052Z,42.80
2023-04-17T01:53:35.710Z,43.28
2023-04-17T01:56:03.696Z,43.55
2023-04-17T01:58:31.857Z,43.53
2023-04-17T02:01:01.367Z,45.80
2023-04-17T02:03:29.314Z,47.22
2023-04-17T02:05:57.164Z,47.33
2023-04-17T02:08:25.317Z,46.30
2023-04-17T02:10:53.168Z,45.25
2023-04-17T02:13:20.997Z,47.22
2023-04-17T02:15:48.912Z,46.17
2023-04-17T02:18:18.204Z,49.22
2023-04-17T02:20:45.897Z,48.97
2023-04-17T02:23:13.701Z,45.97
2023-04-17T02:25:42.009Z,45.33
2023-04-17T02:28:09.810Z,47.45
2023-04-17T02:30:37.833Z,47.90
2023-04-17T02:33:05.637Z,46.88
2023-04-17T02:35:35.004Z,49.53
2023-04-17T02:38:02.706Z,48.05
2023-04-17T02:40:30.531Z,49.40
2023-04-17T02:42:58.290Z,47.65
2023-04-17T02:45:26.193Z,49.05
2023-04-17T02:47:53.947Z,47.40
2023-04-17T02:50:21.967Z,54.30
2023-04-17T02:52:51.101Z,49.65
2023-04-17T02:55:19.470Z,45.72
2023-04-17T02:57:47.250Z,47.63
2023-04-17T03:00:15.434Z,47.45
2023-04-17T03:02:43.415Z,47.83
2023-04-17T03:05:12.018Z,48.45
2023-04-17T03:07:39.778Z,49.35
2023-04-17T03:10:10.099Z,50.42
2023-04-17T03:12:38.273Z,49.55
2023-04-17T03:15:08.867Z,51.85
2023-04-17T03:17:36.940Z,46.08
2023-04-17T03:20:07.405Z,47.90
2023-04-17T03:22:35.527Z,48.22
2023-04-17T03:25:03.492Z,49.28
2023-04-17T03:27:32.669Z,47.33
2023-04-17T03:30:00.540Z,48.38
2023-04-17T03:32:28.608Z,53.63
2023-04-17T03:34:56.451Z,51.40
2023-04-17T03:37:24.153Z,49.65
2023-04-17T03:39:52.036Z,50.13
2023-04-17T03:42:19.827Z,47.70
2023-04-17T03:44:48.977Z,50.08
2023-04-17T03:47:16.777Z,49.55
2023-04-17T03:49:44.524Z,48.80
2023-04-17T03:52:12.388Z,52.35
2023-04-17T03:54:40.194Z,48.05
2023-04-17T03:57:07.919Z,50.25
2023-04-17T03:59:36.002Z,49.30
2023-04-17T04:02:05.389Z,49.67
2023-04-17T04:04:33.846Z,51.25
2023-04-17T04:07:01.948Z,53.60
2023-04-17T04:09:29.658Z,49.17
2023-04-17T04:11:57.444Z,53.78
2023-04-17T04:14:25.385Z,49.38
2023-04-17T04:16:53.262Z,49.35
2023-04-17T04:19:22.587Z,48.70
2023-04-17T04:21:50.354Z,49.75
2023-04-17T04:24:20.286Z,50.72
2023-04-17T04:26:49.678Z,52.08
2023-04-17T04:29:17.982Z,50.75
2023-04-17T04:31:46.611Z,50.55
2023-04-17T04:34:16.885Z,50.00
2023-04-17T04:36:50.060Z,51.95
2023-04-17T04:39:20.561Z,50.38
2023-04-17T04:41:48.324Z,47.13
2023-04-17T04:44:16.061Z,47.10
2023-04-17T04:46:43.851Z,52.03
2023-04-17T04:49:12.248Z,48.88
2023-04-17T04:51:40.956Z,48.20
2023-04-17T04:54:10.706Z,51.28
2023-04-17T04:56:38.548Z,49.63
2023-04-17T04:59:06.252Z,50.40
2023-04-17T05:01:34.398Z,47.45
2023-04-17T05:04:02.359Z,48.00
2023-04-17T05:06:31.251Z,49.33
2023-04-17T05:08:59.002Z,47.70
2023-04-17T05:11:28.295Z,46.05
2023-04-17T05:13:56.089Z,49.58
2023-04-17T05:16:23.963Z,49.88
2023-04-17T05:18:51.964Z,47.38
2023-04-17T05:21:19.916Z,48.63
2023-04-17T05:23:47.666Z,47.40
2023-04-17T05:26:15.524Z,45.95
2023-04-17T05:28:45.756Z,47.50
2023-04-17T05:31:13.705Z,47.17
2023-04-17T05:33:41.685Z,46.85
2023-04-17T05:36:10.368Z,47.67
2023-04-17T05:38:38.381Z,46.50
2023-04-17T05:41:07.609Z,45.97
2023-04-17T05:43:36.515Z,46.05
2023-04-17T05:46:06.348Z,46.92
2023-04-17T05:48:34.203Z,48.63
2023-04-17T05:51:02.332Z,46.70
2023-04-17T05:53:31.136Z,45.72
2023-04-17T05:55:59.185Z,46.17
2023-04-17T05:58:26.936Z,47.90
2023-04-17T06:00:54.782Z,44.60
2023-04-17T06:03:24.740Z,45.15
2023-04-17T06:05:52.827Z,45.17
2023-04-17T06:08:20.734Z,47.08
2023-04-17T06:10:50.226Z,45.80
2023-04-17T06:13:17.967Z,46.42
2023-04-17T06:15:46.086Z,45.60
2023-04-17T06:18:16.140Z,46.13
2023-04-17T06:20:45.614Z,45.97
2023-04-17T06:23:13.644Z,46.80
2023-04-17T06:25:41.461Z,45.80
2023-04-17T06:28:09.367Z,45.58
2023-04-17T06:30:37.410Z,45.22
2023-04-17T06:33:05.361Z,45.75
2023-04-17T06:35:33.914Z,46.35
2023-04-17T06:38:03.366Z,44.28
2023-04-17T06:40:31.142Z,43.20
2023-04-17T06:42:58.970Z,44.40
2023-04-17T06:45:26.843Z,44.05
2023-04-17T06:47:54.636Z,44.65
2023-04-17T06:50:23.286Z,41.67
2023-04-17T06:52:51.326Z,43.30
2023-04-17T06:55:20.823Z,43.65
2023-04-17T06:57:48.622Z,41.97
2023-04-17T07:00:18.822Z,42.47
2023-04-17T07:02:47.174Z,41.78
2023-04-17T07:05:15.033Z,41.45
2023-04-17T07:07:42.815Z,39.30
2023-04-17T07:10:11.180Z,41.95
2023-04-17T07:12:40.526Z,39.45
2023-04-17T07:15:09.500Z,39.05
2023-04-17T07:17:37.386Z,40.38
2023-04-17T07:20:07.316Z,37.92
2023-04-17T07:22:35.437Z,37.78
2023-04-17T07:25:03.874Z,38.92
2023-04-17T07:27:31.681Z,37.47
2023-04-17T07:30:00.967Z,37.47
2023-04-17T07:32:29.653Z,37.80
2023-04-17T07:34:57.393Z,36.25
2023-04-17T07:37:25.632Z,35.10
2023-04-17T07:39:54.644Z,35.38
2023-04-17T07:42:22.363Z,34.90
2023-04-17T07:44:55.207Z,37.00
2023-04-17T07:47:24.398Z,37.80
2023-04-17T07:49:52.358Z,36.88
2023-04-17T07:52:20.174Z,37.17
2023-04-17T07:54:48.098Z,38.30
2023-04-17T07:57:18.065Z,38.90
2023-04-17T07:59:46.779Z,37.88
2023-04-17T08:02:15.956Z,37.20
2023-04-17T08:04:45.630Z,38.13
2023-04-17T08:07:14.541Z,37.03
2023-04-17T08:09:43.858Z,36.72
2023-04-17T08:12:11.931Z,36.63
2023-04-17T08:14:40.771Z,37.67
2023-04-17T08:17:09.008Z,36.75
2023-04-17T08:19:36.891Z,37.28
2023-04-17T08:22:07.688Z,39.10
2023-04-17T08:24:35.653Z,35.40
2023-04-17T08:27:03.805Z,36.20
2023-04-17T08:29:31.660Z,37.50
2023-04-17T08:32:13.332Z,36.63
2023-04-17T08:34:42.846Z,35.15
2023-04-17T08:37:12.354Z,35.72
2023-04-17T08:39:40.844Z,34.88
2023-04-17T08:42:13.329Z,35.85
2023-04-17T08:44:44.878Z,38.05
2023-04-17T08:47:13.953Z,34.25
2023-04-17T08:49:44.114Z,33.42
2023-04-17T08:52:14.499Z,39.25
2023-04-17T08:54:42.401Z,33.05
2023-04-17T08:57:10.306Z,32.83
2023-04-17T08:59:38.674Z,31.35
2023-04-17T09:02:08.361Z,30.50
2023-04-17T09:04:38.305Z,29.73
2023-04-17T09:07:06.950Z,30.52
2023-04-17T09:09:52.942Z,29.92
2023-04-17T09:12:21.624Z,30.05
2023-04-17T09:14:49.551Z,29.42
2023-04-17T09:17:18.986Z,28.38
2023-04-17T09:20:06.609Z,27.63
2023-04-17T09:22:35.715Z,27.83
2023-04-17T09:25:05.875Z,27.88
2023-04-17T09:27:33.988Z,27.90
2023-04-17T09:30:04.085Z,27.45
2023-04-17T09:32:33.420Z,27.27
2023-04-17T09:35:03.700Z,27.65
2023-04-17T09:37:50.017Z,28.00
2023-04-17T09:40:20.427Z,26.08
2023-04-17T09:42:59.148Z,25.35
2023-04-17T09:45:33.352Z,25.45
2023-04-17T09:48:01.475Z,25.60
2023-04-17T09:50:29.942Z,24.05
2023-04-17T09:52:58.811Z,22.38
2023-04-17T09:55:30.212Z,22.92
2023-04-17T09:58:00.005Z,21.88
2023-04-17T10:00:29.405Z,22.20
2023-04-17T10:02:59.186Z,22.30
2023-04-17T10:05:29.291Z,22.02
2023-04-17T10:07:57.376Z,20.70
2023-04-17T10:10:30.355Z,20.65
2023-04-17T10:13:01.741Z,19.58
2023-04-17T10:15:30.819Z,19.38
2023-04-17T10:18:20.826Z,19.15
2023-04-17T10:20:50.265Z,18.48
2023-04-17T10:23:30.468Z,18.45
2023-04-17T10:26:46.597Z,19.27
2023-04-17T10:29:18.637Z,18.88
2023-04-17T10:32:26.133Z,18.98
2023-04-17T10:34:56.185Z,18.13
2023-04-17T10:38:02.970Z,18.92
2023-04-17T10:40:32.550Z,18.90
2023-04-17T10:43:05.462Z,19.13
2023-04-17T10:45:58.547Z,17.52
2023-04-17T10:48:33.299Z,16.08
2023-04-17T10:51:02.490Z,16.60
2023-04-17T10:53:44.972Z,15.80
2023-04-17T10:56:18.820Z,15.40
2023-04-17T10:59:08.152Z,17.00
2023-04-17T11:01:41.478Z,15.88
2023-04-17T11:04:11.532Z,16.25
2023-04-17T11:06:42.242Z,16.60
2023-04-17T11:09:11.892Z,15.07
2023-04-17T11:11:44.765Z,15.60
2023-04-17T11:14:16.615Z,15.77
2023-04-17T11:16:47.216Z,15.02
2023-04-17T11:19:19.911Z,14.02
2023-04-17T11:21:49.970Z,15.27
2023-04-17T11:24:23.961Z,15.85
2023-04-17T11:26:51.833Z,15.65
2023-04-17T11:29:20.890Z,16.85
2023-04-17T11:31:51.897Z,15.18
2023-04-17T11:34:20.463Z,15.23
2023-04-17T11:36:51.812Z,14.05
2023-04-17T11:39:20.299Z,14.35
2023-04-17T11:41:48.183Z,14.85
2023-04-17T11:44:18.070Z,14.07
2023-04-17T11:46:52.342Z,15.55
2023-04-17T11:49:25.451Z,15.30
2023-04-17T11:51:56.743Z,14.98
2023-04-17T11:54:28.031Z,15.80
2023-04-17T11:57:01.334Z,15.50
2023-04-17T11:59:33.421Z,15.68
2023-04-17T12:02:03.900Z,14.40
2023-04-17T12:04:35.245Z,13.77
2023-04-17T12:07:03.834Z,13.30
2023-04-17T12:09:32.669Z,13.55
2023-04-17T12:12:01.378Z,12.93
2023-04-17T12:14:29.260Z,13.27
2023-04-17T12:16:57.096Z,12.43
2023-04-17T12:19:27.972Z,12.25
2023-04-17T12:21:55.849Z,12.38
2023-04-17T12:24:25.103Z,12.10
2023-04-17T12:26:53.714Z,12.10
2023-04-17T12:29:29.471Z,11.65
2023-04-17T12:32:04.881Z,11.65
2023-04-17T12:34:34.434Z,8.80
2023-04-17T12:37:02.315Z,7.80
2023-04-17T12:39:30.143Z,7.43
2023-04-17T12:41:57.936Z,7.20
2023-04-17T12:44:25.773Z,7.18
2023-04-17T12:46:53.693Z,6.43
2023-04-17T12:49:23.740Z,7.05
2023-04-17T12:51:53.148Z,6.70
2023-04-17T12:54:21.029Z,7.25
2023-04-17T12:56:48.893Z,8.02
2023-04-17T12:59:17.871Z,7.93
2023-04-17T13:01:45.763Z,7.90
2023-04-17T13:04:14.195Z,7.60
2023-04-17T13:06:42.916Z,7.45
2023-04-17T13:09:12.465Z,8.27
2023-04-17T13:11:40.512Z,7.75
2023-04-17T13:14:09.499Z,8.63
2023-04-17T13:16:37.448Z,8.88
2023-04-17T13:19:05.430Z,8.45
2023-04-17T13:21:33.286Z,8.85
2023-04-17T13:24:01.140Z,8.77
2023-04-17T13:26:30.661Z,9.10
2023-04-17T13:28:58.476Z,9.68
2023-04-17T13:31:27.698Z,9.27
2023-04-17T13:33:55.615Z,9.23
2023-04-17T13:36:24.315Z,9.05
2023-04-17T13:38:52.126Z,9.75
2023-04-17T13:41:20.117Z,9.27
2023-04-17T13:43:49.340Z,9.75
2023-04-17T13:46:17.350Z,9.73
2023-04-17T13:48:45.308Z,10.18
2023-04-17T13:51:13.331Z,10.77
2023-04-17T13:53:41.543Z,9.95
2023-04-17T13:56:10.243Z,10.40
2023-04-17T13:58:38.287Z,10.43
2023-04-17T14:01:09.027Z,10.88
2023-04-17T14:03:40.117Z,10.13
2023-04-17T14:06:09.442Z,10.38
2023-04-17T14:08:37.575Z,10.27
2023-04-17T14:11:05.435Z,10.15
2023-04-17T14:13:39.602Z,10.45
2023-04-17T14:16:34.765Z,9.98
2023-04-17T14:19:12.516Z,10.57
2023-04-17T14:21:41.715Z,10.40
2023-04-17T14:24:09.744Z,11.00
2023-04-17T14:26:38.626Z,9.80
2023-04-17T14:29:06.631Z,9.50
2023-04-17T14:31:36.028Z,10.85
2023-04-17T14:34:04.120Z,10.85
2023-04-17T14:36:31.985Z,9.75
2023-04-17T14:39:00.213Z,10.93
2023-04-17T14:41:31.049Z,10.95
2023-04-17T14:44:00.655Z,10.40
2023-04-17T14:46:29.001Z,9.80
2023-04-17T14:48:58.668Z,10.00
2023-04-17T14:51:27.399Z,10.45
2023-04-17T14:53:56.482Z,10.18
2023-04-17T14:56:24.439Z,10.25
2023-04-17T14:58:52.414Z,9.50
2023-04-17T15:01:20.895Z,9.40
2023-04-17T15:03:49.343Z,9.05
2023-04-17T15:06:19.094Z,9.02
2023-04-17T15:08:47.208Z,8.50
2023-04-17T15:11:15.982Z,8.73
2023-04-17T15:13:44.470Z,8.68
2023-04-17T15:16:12.721Z,8.38
2023-04-17T15:18:41.020Z,8.85
2023-04-17T15:21:09.459Z,8.43
2023-04-17T15:23:38.869Z,8.23
2023-04-17T15:26:06.951Z,8.77
2023-04-17T15:28:35.234Z,8.88
2023-04-17T15:31:03.347Z,9.88
2023-04-17T15:33:31.467Z,8.75
2023-04-17T15:36:00.366Z,9.07
2023-04-17T15:38:29.041Z,8.68
2023-04-17T15:40:59.096Z,8.45
2023-04-17T15:43:27.638Z,8.75
2023-04-17T15:45:56.148Z,7.85
2023-04-17T15:48:24.526Z,8.23
2023-04-17T15:50:52.554Z,8.68
2023-04-17T15:53:20.404Z,9.43
2023-04-17T15:55:48.515Z,8.35
2023-04-17T15:58:18.013Z,8.50
2023-04-17T16:00:46.097Z,9.15
2023-04-17T16:03:14.845Z,9.02
2023-04-17T16:05:43.131Z,8.63
2023-04-17T16:08:11.311Z,9.07
2023-04-17T16:10:39.566Z,8.30
2023-04-17T16:13:07.516Z,12.93
2023-04-17T16:15:36.920Z,10.48
2023-04-17T16:18:05.421Z,12.52
2023-04-17T16:20:33.399Z,8.82
2023-04-17T16:23:01.267Z,8.20
2023-04-17T16:25:29.235Z,9.20
2023-04-17T16:27:57.167Z,9.50
2023-04-17T16:30:25.307Z,9.82
2023-04-17T16:32:57.417Z,9.45
2023-04-17T16:35:25.860Z,10.02
2023-04-17T16:37:53.823Z,9.25
2023-04-17T16:40:26.759Z,9.50
2023-04-17T16:42:54.730Z,10.18
2023-04-17T16:45:22.868Z,9.38
2023-04-17T16:47:50.846Z,9.88
2023-04-17T16:50:25.661Z,10.23
2023-04-17T16:52:53.837Z,9.73
2023-04-17T16:55:21.763Z,9.88
2023-04-17T16:57:49.566Z,10.23
2023-04-17T17:00:18.432Z,10.00
2023-04-17T17:02:46.373Z,10.23
2023-04-17T17:05:15.563Z,10.65
2023-04-17T17:07:45.195Z,10.38
2023-04-17T17:10:13.075Z,10.30
2023-04-17T17:12:41.032Z,10.10
2023-04-17T17:15:09.325Z,10.45
2023-04-17T17:17:37.396Z,9.70
2023-04-17T17:20:06.381Z,10.00
2023-04-17T17:22:34.307Z,9.85
2023-04-17T17:25:04.027Z,9.52
2023-04-17T17:27:31.823Z,9.35
2023-04-17T17:30:00.459Z,9.23
2023-04-17T17:32:28.751Z,9.15
2023-04-17T17:34:58.202Z,9.73
2023-04-17T17:37:26.891Z,10.35
2023-04-17T17:39:55.138Z,9.82
2023-04-17T17:42:24.375Z,10.10
2023-04-17T17:44:52.337Z,9.77
2023-04-17T17:47:20.145Z,9.38
2023-04-17T17:49:49.450Z,10.32
2023-04-17T17:52:17.827Z,10.40
2023-04-17T17:54:45.644Z,10.05
2023-04-17T17:57:13.377Z,10.90
2023-04-17T17:59:42.742Z,10.38
2023-04-17T18:02:10.881Z,10.50
2023-04-17T18:04:38.894Z,10.50
2023-04-17T18:07:08.003Z,10.20
2023-04-17T18:09:35.843Z,10.43
2023-04-17T18:12:03.957Z,10.35
2023-04-17T18:14:31.955Z,12.90
2023-04-17T18:17:01.167Z,9.90
2023-04-17T18:19:29.090Z,10.48
2023-04-17T18:21:57.181Z,10.48
2023-04-17T18:24:25.675Z,10.85
2023-04-17T18:26:53.422Z,10.75
2023-04-17T18:29:21.155Z,11.07
2023-04-17T18:31:51.132Z,10.70
2023-04-17T18:34:23.188Z,10.75
2023-04-17T18:36:51.111Z,10.27
2023-04-17T18:39:22.368Z,10.88
2023-04-17T18:41:50.647Z,11.43
2023-04-17T18:44:24.551Z,11.57
2023-04-17T18:47:02.839Z,11.60
2023-04-17T18:49:32.107Z,11.95
2023-04-17T18:52:00.089Z,11.10
2023-04-17T18:54:27.882Z,13.30
2023-04-17T18:56:56.432Z,13.98
2023-04-17T18:59:26.148Z,17.15
2023-04-17T19:01:54.529Z,16.33
2023-04-17T19:04:22.290Z,15.30
2023-04-17T19:06:51.483Z,19.20
2023-04-17T19:09:29.961Z,18.20
2023-04-17T19:12:00.154Z,12.88
2023-04-17T19:14:28.488Z,13.13
2023-04-17T19:16:56.485Z,13.57
2023-04-17T19:19:24.378Z,12.88
2023-04-17T19:21:56.502Z,13.27
2023-04-17T19:24:24.325Z,13.75
2023-04-17T19:26:52.120Z,13.98
2023-04-17T19:29:20.063Z,13.23
2023-04-17T19:31:47.844Z,12.73
2023-04-17T19:34:15.785Z,12.90
2023-04-17T19:36:44.179Z,12.90
2023-04-17T19:39:13.761Z,13.40
2023-04-17T19:41:42.268Z,13.48
2023-04-17T19:44:11.145Z,12.63
2023-04-17T19:46:41.260Z,13.23
2023-04-17T19:49:09.545Z,13.15
2023-04-17T19:51:39.383Z,13.38
2023-04-17T19:54:07.319Z,14.13
2023-04-17T19:56:40.343Z,12.60
2023-04-17T19:59:12.563Z,13.30
2023-04-17T20:04:11.888Z,13.82
2023-04-17T20:06:40.977Z,12.60
2023-04-17T20:09:08.999Z,13.45
2023-04-17T20:11:38.544Z,13.38
2023-04-17T20:14:06.649Z,13.45
2023-04-17T20:16:37.462Z,14.07
2023-04-17T20:19:05.313Z,13.82
2023-04-17T20:21:33.280Z,12.57
2023-04-17T20:24:01.121Z,14.00
2023-04-17T20:26:29.123Z,12.57
2023-04-17T20:28:58.398Z,13.35
2023-04-17T20:31:26.244Z,13.65
2023-04-17T20:33:54.094Z,13.05
2023-04-17T20:36:22.077Z,13.10
2023-04-17T20:39:26.779Z,13.30
2023-04-17T20:41:54.995Z,13.43
2023-04-17T20:44:24.621Z,13.30
2023-04-17T20:46:52.420Z,13.50
2023-04-17T20:49:20.252Z,13.05
2023-04-17T20:51:48.018Z,13.15
2023-04-17T20:54:15.967Z,14.32
2023-04-17T20:56:44.358Z,13.73
2023-04-17T20:59:12.218Z,12.90
2023-04-17T21:01:41.433Z,13.45
2023-04-17T21:04:11.178Z,13.52
2023-04-17T21:06:39.058Z,13.80
2023-04-17T21:09:08.658Z,14.07
2023-04-17T21:11:36.434Z,13.52
2023-04-17T21:14:04.202Z,14.23
2023-04-17T21:16:32.315Z,13.52
2023-04-17T21:19:01.589Z,13.60
2023-04-17T21:21:29.358Z,13.50
2023-04-17T21:23:57.066Z,13.65
2023-04-17T21:26:24.777Z,13.35
2023-04-17T21:28:52.760Z,13.90
2023-04-17T21:31:20.621Z,15.00
2023-04-17T21:33:48.368Z,14.00
2023-04-17T21:36:19.333Z,14.25
2023-04-17T21:38:47.058Z,13.52
2023-04-17T21:41:14.831Z,13.63
2023-04-17T21:43:42.584Z,14.07
2023-04-17T21:46:10.830Z,14.02
2023-04-17T21:48:38.620Z,13.93
2023-04-17T21:51:07.012Z,14.30
2023-04-17T21:53:37.765Z,14.50
2023-04-17T21:56:07.173Z,14.43
2023-04-17T21:58:35.252Z,13.50
2023-04-17T22:01:04.182Z,13.38
2023-04-17T22:03:32.135Z,13.63
2023-04-17T22:06:00.030Z,13.55
2023-04-17T22:08:27.961Z,13.10
2023-04-17T22:10:57.104Z,13.43
2023-04-17T22:13:24.998Z,12.88
2023-04-17T22:15:52.765Z,12.52
2023-04-17T22:18:21.962Z,13.30
2023-04-17T22:20:50.144Z,12.38
2023-04-17T22:23:17.962Z,12.27
2023-04-17T22:25:45.779Z,11.85
2023-04-17T22:28:14.955Z,11.27
2023-04-17T22:30:43.165Z,11.55
2023-04-17T22:33:10.982Z,10.38
2023-04-17T22:35:38.708Z,10.15
2023-04-17T22:38:06.472Z,9.45
2023-04-17T22:40:34.862Z,10.05
2023-04-17T22:43:02.851Z,9.85
2023-04-17T22:45:32.015Z,9.80
2023-04-17T22:47:59.858Z,9.40
2023-04-17T22:50:29.681Z,8.90
2023-04-17T22:52:57.655Z,8.77
2023-04-17T22:55:25.464Z,9.02
2023-04-17T22:57:53.234Z,9.20
2023-04-17T23:00:21.100Z,9.00
2023-04-17T23:02:50.413Z,8.98
2023-04-17T23:05:18.499Z,8.80
2023-04-17T23:07:46.398Z,9.35
2023-04-17T23:10:14.234Z,9.35
2023-04-17T23:12:42.029Z,8.85
2023-04-17T23:15:11.234Z,9.55
2023-04-17T23:17:39.214Z,9.77
2023-04-17T23:20:09.374Z,9.98
2023-04-17T23:22:37.246Z,9.85
2023-04-17T23:25:05.600Z,9.35
2023-04-17T23:27:33.409Z,10.38
2023-04-17T23:30:01.230Z,9.52
2023-04-17T23:32:29.183Z,9.55
2023-04-17T23:34:56.884Z,9.23
2023-04-17T23:37:26.269Z,9.52
2023-04-17T23:39:54.152Z,10.07
2023-04-17T23:42:22.373Z,9.77
2023-04-17T23:44:50.148Z,9.10
2023-04-17T23:47:22.948Z,9.13
2023-04-17T23:49:50.728Z,9.57
2023-04-17T23:52:19.387Z,9.65
2023-04-17T23:54:48.625Z,9.45
2023-04-17T23:57:16.499Z,10.07
2023-04-17T23:59:44.334Z,9.45
